sensor_id;sensor_type;location;lat;lon;timestamp;temperature;humidity
48860;DHT22;34679;51.436;-2.518;2022-12-18T00:01:51;-0.90;99.90
48860;DHT22;34679;51.436;-2.518;2022-12-18T00:04:23;-0.90;99.90
48860;DHT22;34679;51.436;-2.518;2022-12-18T00:06:49;-0.80;99.90
48860;DHT22;34679;51.436;-2.518;2022-12-18T00:09:15;-0.40;99.90
48860;DHT22;34679;51.436;-2.518;2022-12-18T00:11:41;-0.90;99.90
48860;DHT22;34679;51.436;-2.518;2022-12-18T00:14:06;-0.90;99.90
48860;DHT22;34679;51.436;-2.518;2022-12-18T00:16:32;-0.80;99.90
48860;DHT22;34679;51.436;-2.518;2022-12-18T00:19:01;-0.80;99.90
48860;DHT22;34679;51.436;-2.518;2022-12-18T00:21:28;-0.80;99.90
48860;DHT22;34679;51.436;-2.518;2022-12-18T00:23:54;-0.70;99.90
48860;DHT22;34679;51.436;-2.518;2022-12-18T00:26:26;-0.70;99.90
48860;DHT22;34679;51.436;-2.518;2022-12-18T00:28:52;-0.70;99.90
48860;DHT22;34679;51.436;-2.518;2022-12-18T00:31:23;-0.60;99.90
48860;DHT22;34679;51.436;-2.518;2022-12-18T00:33:50;-0.60;99.90
48860;DHT22;34679;51.436;-2.518;2022-12-18T00:36:21;-0.60;99.90
48860;DHT22;34679;51.436;-2.518;2022-12-18T00:38:47;-0.70;99.90
48860;DHT22;34679;51.436;-2.518;2022-12-18T00:41:15;-0.70;99.90
48860;DHT22;34679;51.436;-2.518;2022-12-18T00:44:01;-0.70;99.90
48860;DHT22;34679;51.436;-2.518;2022-12-18T00:46:27;-0.60;99.90
48860;DHT22;34679;51.436;-2.518;2022-12-18T00:48:53;-0.40;99.90
48860;DHT22;34679;51.436;-2.518;2022-12-18T00:51:19;-0.40;99.90
48860;DHT22;34679;51.436;-2.518;2022-12-18T00:53:44;-0.50;99.90
48860;DHT22;34679;51.436;-2.518;2022-12-18T00:56:10;-0.50;99.90
48860;DHT22;34679;51.436;-2.518;2022-12-18T00:58:36;-0.50;99.90
48860;DHT22;34679;51.436;-2.518;2022-12-18T01:01:04;-0.40;99.90
48860;DHT22;34679;51.436;-2.518;2022-12-18T01:03:29;-0.40;99.90
48860;DHT22;34679;51.436;-2.518;2022-12-18T01:05:56;-0.40;99.90
48860;DHT22;34679;51.436;-2.518;2022-12-18T01:08:21;-0.40;99.90
48860;DHT22;34679;51.436;-2.518;2022-12-18T01:10:47;-0.40;99.90
48860;DHT22;34679;51.436;-2.518;2022-12-18T01:13:13;-0.40;99.90
48860;DHT22;34679;51.436;-2.518;2022-12-18T01:15:38;-0.60;99.90
48860;DHT22;34679;51.436;-2.518;2022-12-18T01:18:05;-0.60;99.90
48860;DHT22;34679;51.436;-2.518;2022-12-18T01:20:31;-0.70;99.90
48860;DHT22;34679;51.436;-2.518;2022-12-18T01:22:56;-0.80;99.90
48860;DHT22;34679;51.436;-2.518;2022-12-18T01:25:22;-1.00;99.90
48860;DHT22;34679;51.436;-2.518;2022-12-18T01:27:48;-1.00;99.90
48860;DHT22;34679;51.436;-2.518;2022-12-18T01:30:13;-1.10;99.90
48860;DHT22;34679;51.436;-2.518;2022-12-18T01:32:39;-1.20;99.90
48860;DHT22;34679;51.436;-2.518;2022-12-18T01:35:05;-1.20;99.90
48860;DHT22;34679;51.436;-2.518;2022-12-18T01:37:31;-1.20;99.90
48860;DHT22;34679;51.436;-2.518;2022-12-18T01:39:57;-1.30;99.90
48860;DHT22;34679;51.436;-2.518;2022-12-18T01:42:23;-1.30;99.90
48860;DHT22;34679;51.436;-2.518;2022-12-18T01:47:57;-1.40;99.90
48860;DHT22;34679;51.436;-2.518;2022-12-18T01:50:24;-1.50;99.90
48860;DHT22;34679;51.436;-2.518;2022-12-18T01:53:02;-1.60;99.90
48860;DHT22;34679;51.436;-2.518;2022-12-18T01:55:31;-1.70;99.90
48860;DHT22;34679;51.436;-2.518;2022-12-18T01:57:59;-1.70;99.90
48860;DHT22;34679;51.436;-2.518;2022-12-18T02:00:26;-1.80;99.90
48860;DHT22;34679;51.436;-2.518;2022-12-18T02:02:53;-1.70;99.90
48860;DHT22;34679;51.436;-2.518;2022-12-18T02:05:46;-1.60;99.90
48860;DHT22;34679;51.436;-2.518;2022-12-18T02:08:22;-1.40;99.90
48860;DHT22;34679;51.436;-2.518;2022-12-18T02:13:50;-1.20;99.90
48860;DHT22;34679;51.436;-2.518;2022-12-18T02:16:43;-1.00;99.90
48860;DHT22;34679;51.436;-2.518;2022-12-18T02:27:24;-0.80;99.90
48860;DHT22;34679;51.436;-2.518;2022-12-18T02:29:55;-0.90;99.90
48860;DHT22;34679;51.436;-2.518;2022-12-18T02:32:27;-0.90;99.90
48860;DHT22;34679;51.436;-2.518;2022-12-18T02:34:56;-1.00;99.90
48860;DHT22;34679;51.436;-2.518;2022-12-18T02:37:23;-1.10;99.90
48860;DHT22;34679;51.436;-2.518;2022-12-18T02:39:51;-1.10;99.90
48860;DHT22;34679;51.436;-2.518;2022-12-18T02:42:19;-1.10;99.90
48860;DHT22;34679;51.436;-2.518;2022-12-18T02:44:47;-1.20;99.90
48860;DHT22;34679;51.436;-2.518;2022-12-18T02:47:15;-1.20;99.90
48860;DHT22;34679;51.436;-2.518;2022-12-18T02:58:16;-1.30;99.90
48860;DHT22;34679;51.436;-2.518;2022-12-18T03:06:04;-1.10;99.90
48860;DHT22;34679;51.436;-2.518;2022-12-18T03:08:38;-1.00;99.90
48860;DHT22;34679;51.436;-2.518;2022-12-18T03:11:09;-0.80;99.90
48860;DHT22;34679;51.436;-2.518;2022-12-18T03:13:49;-0.60;99.90
48860;DHT22;34679;51.436;-2.518;2022-12-18T03:16:21;-0.50;99.90
48860;DHT22;34679;51.436;-2.518;2022-12-18T03:19:01;-0.50;99.90
48860;DHT22;34679;51.436;-2.518;2022-12-18T03:21:36;-0.40;99.90
48860;DHT22;34679;51.436;-2.518;2022-12-18T03:24:06;-0.40;99.90
48860;DHT22;34679;51.436;-2.518;2022-12-18T03:26:33;-0.30;99.90
48860;DHT22;34679;51.436;-2.518;2022-12-18T03:29:04;-0.20;99.90
48860;DHT22;34679;51.436;-2.518;2022-12-18T03:31:32;-0.10;99.90
48860;DHT22;34679;51.436;-2.518;2022-12-18T03:34:01;-0.10;99.90
48860;DHT22;34679;51.436;-2.518;2022-12-18T03:36:28;-0.10;99.90
48860;DHT22;34679;51.436;-2.518;2022-12-18T03:38:53;-0.10;99.90
48860;DHT22;34679;51.436;-2.518;2022-12-18T03:41:32;-0.10;99.90
48860;DHT22;34679;51.436;-2.518;2022-12-18T03:44:02;0.00;99.90
48860;DHT22;34679;51.436;-2.518;2022-12-18T03:49:47;0.00;99.90
48860;DHT22;34679;51.436;-2.518;2022-12-18T03:54:47;-0.10;99.90
48860;DHT22;34679;51.436;-2.518;2022-12-18T03:57:21;0.00;99.90
48860;DHT22;34679;51.436;-2.518;2022-12-18T03:59:50;-0.10;99.90
48860;DHT22;34679;51.436;-2.518;2022-12-18T04:02:18;0.00;99.90
48860;DHT22;34679;51.436;-2.518;2022-12-18T04:04:44;0.10;99.90
48860;DHT22;34679;51.436;-2.518;2022-12-18T04:07:13;0.30;99.90
48860;DHT22;34679;51.436;-2.518;2022-12-18T04:09:41;0.40;99.90
48860;DHT22;34679;51.436;-2.518;2022-12-18T04:12:08;0.50;99.90
48860;DHT22;34679;51.436;-2.518;2022-12-18T04:14:34;0.60;99.90
48860;DHT22;34679;51.436;-2.518;2022-12-18T04:17:01;0.70;99.90
48860;DHT22;34679;51.436;-2.518;2022-12-18T04:19:28;0.90;99.90
48860;DHT22;34679;51.436;-2.518;2022-12-18T04:21:54;1.00;99.90
48860;DHT22;34679;51.436;-2.518;2022-12-18T04:24:19;1.10;99.90
48860;DHT22;34679;51.436;-2.518;2022-12-18T04:26:45;1.10;99.90
48860;DHT22;34679;51.436;-2.518;2022-12-18T04:29:11;1.10;99.90
48860;DHT22;34679;51.436;-2.518;2022-12-18T04:31:37;1.20;99.90
48860;DHT22;34679;51.436;-2.518;2022-12-18T04:34:03;1.30;99.90
48860;DHT22;34679;51.436;-2.518;2022-12-18T04:36:28;1.30;99.90
48860;DHT22;34679;51.436;-2.518;2022-12-18T04:38:55;1.40;99.90
48860;DHT22;34679;51.436;-2.518;2022-12-18T04:41:20;1.50;99.90
48860;DHT22;34679;51.436;-2.518;2022-12-18T04:43:46;1.50;99.90
48860;DHT22;34679;51.436;-2.518;2022-12-18T04:46:12;1.60;99.90
48860;DHT22;34679;51.436;-2.518;2022-12-18T04:48:39;1.60;99.90
48860;DHT22;34679;51.436;-2.518;2022-12-18T04:51:05;1.60;99.90
48860;DHT22;34679;51.436;-2.518;2022-12-18T04:53:31;1.70;99.90
48860;DHT22;34679;51.436;-2.518;2022-12-18T04:56:04;1.70;99.90
48860;DHT22;34679;51.436;-2.518;2022-12-18T04:58:30;1.70;99.90
48860;DHT22;34679;51.436;-2.518;2022-12-18T05:00:56;1.70;99.90
48860;DHT22;34679;51.436;-2.518;2022-12-18T05:03:21;1.70;99.90
48860;DHT22;34679;51.436;-2.518;2022-12-18T05:05:51;1.70;99.90
48860;DHT22;34679;51.436;-2.518;2022-12-18T05:08:17;1.70;99.90
48860;DHT22;34679;51.436;-2.518;2022-12-18T05:10:43;1.70;99.90
48860;DHT22;34679;51.436;-2.518;2022-12-18T05:13:09;1.70;99.90
48860;DHT22;34679;51.436;-2.518;2022-12-18T05:15:35;1.70;99.90
48860;DHT22;34679;51.436;-2.518;2022-12-18T05:18:01;1.70;99.90
48860;DHT22;34679;51.436;-2.518;2022-12-18T05:20:28;1.80;99.90
48860;DHT22;34679;51.436;-2.518;2022-12-18T05:22:54;1.80;99.90
48860;DHT22;34679;51.436;-2.518;2022-12-18T05:25:20;1.90;99.90
48860;DHT22;34679;51.436;-2.518;2022-12-18T05:27:46;1.90;99.90
48860;DHT22;34679;51.436;-2.518;2022-12-18T05:30:13;1.90;99.90
48860;DHT22;34679;51.436;-2.518;2022-12-18T05:32:39;1.90;99.90
48860;DHT22;34679;51.436;-2.518;2022-12-18T05:35:07;2.00;99.90
48860;DHT22;34679;51.436;-2.518;2022-12-18T05:37:33;2.00;99.90
48860;DHT22;34679;51.436;-2.518;2022-12-18T05:39:59;2.10;99.90
48860;DHT22;34679;51.436;-2.518;2022-12-18T05:42:24;2.10;99.90
48860;DHT22;34679;51.436;-2.518;2022-12-18T05:44:50;2.10;99.90
48860;DHT22;34679;51.436;-2.518;2022-12-18T05:47:16;2.10;99.90
48860;DHT22;34679;51.436;-2.518;2022-12-18T05:49:41;2.10;99.90
48860;DHT22;34679;51.436;-2.518;2022-12-18T05:52:07;2.10;99.90
48860;DHT22;34679;51.436;-2.518;2022-12-18T05:54:33;2.20;99.90
48860;DHT22;34679;51.436;-2.518;2022-12-18T05:56:59;2.20;99.90
48860;DHT22;34679;51.436;-2.518;2022-12-18T05:59:24;2.20;99.90
48860;DHT22;34679;51.436;-2.518;2022-12-18T06:01:50;2.20;99.90
48860;DHT22;34679;51.436;-2.518;2022-12-18T06:04:17;2.20;99.90
48860;DHT22;34679;51.436;-2.518;2022-12-18T06:06:42;2.20;99.90
48860;DHT22;34679;51.436;-2.518;2022-12-18T06:09:08;2.20;99.90
48860;DHT22;34679;51.436;-2.518;2022-12-18T06:11:38;2.20;99.90
48860;DHT22;34679;51.436;-2.518;2022-12-18T06:14:05;2.30;99.90
48860;DHT22;34679;51.436;-2.518;2022-12-18T06:16:32;2.30;99.90
48860;DHT22;34679;51.436;-2.518;2022-12-18T06:19:03;2.20;99.90
48860;DHT22;34679;51.436;-2.518;2022-12-18T06:21:30;2.30;99.90
48860;DHT22;34679;51.436;-2.518;2022-12-18T06:23:56;2.30;99.90
48860;DHT22;34679;51.436;-2.518;2022-12-18T06:26:22;2.20;99.90
48860;DHT22;34679;51.436;-2.518;2022-12-18T06:28:48;2.30;99.90
48860;DHT22;34679;51.436;-2.518;2022-12-18T06:31:14;2.30;99.90
48860;DHT22;34679;51.436;-2.518;2022-12-18T06:33:39;2.20;99.90
48860;DHT22;34679;51.436;-2.518;2022-12-18T06:36:11;2.30;99.90
48860;DHT22;34679;51.436;-2.518;2022-12-18T06:38:38;2.30;99.90
48860;DHT22;34679;51.436;-2.518;2022-12-18T06:41:13;2.40;99.90
48860;DHT22;34679;51.436;-2.518;2022-12-18T06:43:39;2.40;99.90
48860;DHT22;34679;51.436;-2.518;2022-12-18T06:46:05;2.40;99.90
48860;DHT22;34679;51.436;-2.518;2022-12-18T06:48:31;2.40;99.90
48860;DHT22;34679;51.436;-2.518;2022-12-18T06:50:57;2.30;99.90
48860;DHT22;34679;51.436;-2.518;2022-12-18T06:53:23;2.20;99.90
48860;DHT22;34679;51.436;-2.518;2022-12-18T06:55:49;2.30;99.90
48860;DHT22;34679;51.436;-2.518;2022-12-18T06:58:15;2.30;99.90
48860;DHT22;34679;51.436;-2.518;2022-12-18T07:00:41;2.30;99.90
48860;DHT22;34679;51.436;-2.518;2022-12-18T07:03:07;2.30;99.90
48860;DHT22;34679;51.436;-2.518;2022-12-18T07:05:32;2.30;99.90
48860;DHT22;34679;51.436;-2.518;2022-12-18T07:07:58;2.30;99.90
48860;DHT22;34679;51.436;-2.518;2022-12-18T07:10:24;2.40;99.90
48860;DHT22;34679;51.436;-2.518;2022-12-18T07:12:50;2.50;99.90
48860;DHT22;34679;51.436;-2.518;2022-12-18T07:15:16;2.60;99.90
48860;DHT22;34679;51.436;-2.518;2022-12-18T07:17:42;2.60;99.90
48860;DHT22;34679;51.436;-2.518;2022-12-18T07:20:08;2.60;99.90
48860;DHT22;34679;51.436;-2.518;2022-12-18T07:22:34;2.70;99.90
48860;DHT22;34679;51.436;-2.518;2022-12-18T07:24:59;2.70;99.90
48860;DHT22;34679;51.436;-2.518;2022-12-18T07:27:25;2.70;99.90
48860;DHT22;34679;51.436;-2.518;2022-12-18T07:29:51;2.70;99.90
48860;DHT22;34679;51.436;-2.518;2022-12-18T07:32:16;2.70;99.90
48860;DHT22;34679;51.436;-2.518;2022-12-18T07:34:42;2.80;99.90
48860;DHT22;34679;51.436;-2.518;2022-12-18T07:37:08;2.80;99.90
48860;DHT22;34679;51.436;-2.518;2022-12-18T07:39:33;2.90;99.90
48860;DHT22;34679;51.436;-2.518;2022-12-18T07:41:59;2.90;99.90
48860;DHT22;34679;51.436;-2.518;2022-12-18T07:44:43;2.90;99.90
48860;DHT22;34679;51.436;-2.518;2022-12-18T07:47:09;3.00;99.90
48860;DHT22;34679;51.436;-2.518;2022-12-18T07:49:34;3.00;99.90
48860;DHT22;34679;51.436;-2.518;2022-12-18T07:52:00;3.00;99.90
48860;DHT22;34679;51.436;-2.518;2022-12-18T07:54:27;3.00;99.90
48860;DHT22;34679;51.436;-2.518;2022-12-18T07:56:53;3.00;99.90
48860;DHT22;34679;51.436;-2.518;2022-12-18T07:59:19;3.00;99.90
48860;DHT22;34679;51.436;-2.518;2022-12-18T08:01:44;3.10;99.90
48860;DHT22;34679;51.436;-2.518;2022-12-18T08:04:10;3.00;99.90
48860;DHT22;34679;51.436;-2.518;2022-12-18T08:06:36;3.10;99.90
48860;DHT22;34679;51.436;-2.518;2022-12-18T08:09:02;3.10;99.90
48860;DHT22;34679;51.436;-2.518;2022-12-18T08:11:28;3.10;99.90
48860;DHT22;34679;51.436;-2.518;2022-12-18T08:13:54;3.10;99.90
48860;DHT22;34679;51.436;-2.518;2022-12-18T08:16:21;3.00;99.90
48860;DHT22;34679;51.436;-2.518;2022-12-18T08:18:48;3.00;99.90
48860;DHT22;34679;51.436;-2.518;2022-12-18T08:21:16;3.00;99.90
48860;DHT22;34679;51.436;-2.518;2022-12-18T08:23:42;3.00;99.90
48860;DHT22;34679;51.436;-2.518;2022-12-18T08:26:09;2.90;99.90
48860;DHT22;34679;51.436;-2.518;2022-12-18T08:28:35;2.90;99.90
48860;DHT22;34679;51.436;-2.518;2022-12-18T08:31:01;2.90;99.90
48860;DHT22;34679;51.436;-2.518;2022-12-18T08:33:27;2.70;99.90
48860;DHT22;34679;51.436;-2.518;2022-12-18T08:35:53;2.70;99.90
48860;DHT22;34679;51.436;-2.518;2022-12-18T08:38:19;2.60;99.90
48860;DHT22;34679;51.436;-2.518;2022-12-18T08:40:44;2.60;99.90
48860;DHT22;34679;51.436;-2.518;2022-12-18T08:43:10;2.50;99.90
48860;DHT22;34679;51.436;-2.518;2022-12-18T08:45:55;2.50;99.90
48860;DHT22;34679;51.436;-2.518;2022-12-18T08:48:20;2.50;99.90
48860;DHT22;34679;51.436;-2.518;2022-12-18T08:50:56;2.50;99.90
48860;DHT22;34679;51.436;-2.518;2022-12-18T08:53:23;2.50;99.90
48860;DHT22;34679;51.436;-2.518;2022-12-18T08:55:49;2.50;99.90
48860;DHT22;34679;51.436;-2.518;2022-12-18T08:58:15;2.60;99.90
48860;DHT22;34679;51.436;-2.518;2022-12-18T09:00:40;2.60;99.90
48860;DHT22;34679;51.436;-2.518;2022-12-18T09:03:17;2.60;99.90
48860;DHT22;34679;51.436;-2.518;2022-12-18T09:05:43;2.60;99.90
48860;DHT22;34679;51.436;-2.518;2022-12-18T09:08:11;2.60;99.90
48860;DHT22;34679;51.436;-2.518;2022-12-18T09:10:48;2.60;99.90
48860;DHT22;34679;51.436;-2.518;2022-12-18T09:13:14;2.60;99.90
48860;DHT22;34679;51.436;-2.518;2022-12-18T09:15:53;2.70;99.90
48860;DHT22;34679;51.436;-2.518;2022-12-18T09:18:21;2.70;99.90
48860;DHT22;34679;51.436;-2.518;2022-12-18T09:20:47;2.70;99.90
48860;DHT22;34679;51.436;-2.518;2022-12-18T09:23:15;2.70;99.90
48860;DHT22;34679;51.436;-2.518;2022-12-18T09:25:42;2.70;99.90
48860;DHT22;34679;51.436;-2.518;2022-12-18T09:28:18;2.80;99.90
48860;DHT22;34679;51.436;-2.518;2022-12-18T09:30:48;2.70;99.90
48860;DHT22;34679;51.436;-2.518;2022-12-18T09:33:14;2.70;99.90
48860;DHT22;34679;51.436;-2.518;2022-12-18T09:35:42;2.80;99.90
48860;DHT22;34679;51.436;-2.518;2022-12-18T09:38:12;2.70;99.90
48860;DHT22;34679;51.436;-2.518;2022-12-18T09:40:53;2.70;99.90
48860;DHT22;34679;51.436;-2.518;2022-12-18T09:43:26;2.80;99.90
48860;DHT22;34679;51.436;-2.518;2022-12-18T09:45:56;2.80;99.90
48860;DHT22;34679;51.436;-2.518;2022-12-18T09:48:31;2.80;99.90
48860;DHT22;34679;51.436;-2.518;2022-12-18T09:51:00;2.90;99.90
48860;DHT22;34679;51.436;-2.518;2022-12-18T09:53:31;2.90;99.90
48860;DHT22;34679;51.436;-2.518;2022-12-18T09:56:00;2.80;99.90
48860;DHT22;34679;51.436;-2.518;2022-12-18T09:58:41;2.90;99.90
48860;DHT22;34679;51.436;-2.518;2022-12-18T10:01:15;2.90;99.90
48860;DHT22;34679;51.436;-2.518;2022-12-18T10:03:41;2.90;99.90
48860;DHT22;34679;51.436;-2.518;2022-12-18T10:06:11;2.90;99.90
48860;DHT22;34679;51.436;-2.518;2022-12-18T10:09:15;2.90;99.90
48860;DHT22;34679;51.436;-2.518;2022-12-18T10:17:19;3.00;99.90
48860;DHT22;34679;51.436;-2.518;2022-12-18T10:19:52;3.00;99.90
48860;DHT22;34679;51.436;-2.518;2022-12-18T10:25:03;3.00;99.90
48860;DHT22;34679;51.436;-2.518;2022-12-18T10:27:36;3.00;99.90
48860;DHT22;34679;51.436;-2.518;2022-12-18T10:30:12;3.10;99.90
48860;DHT22;34679;51.436;-2.518;2022-12-18T10:32:39;3.10;99.90
48860;DHT22;34679;51.436;-2.518;2022-12-18T10:35:08;3.10;99.90
48860;DHT22;34679;51.436;-2.518;2022-12-18T10:40:25;3.10;99.90
48860;DHT22;34679;51.436;-2.518;2022-12-18T10:43:11;3.10;99.90
48860;DHT22;34679;51.436;-2.518;2022-12-18T10:45:38;3.10;99.90
48860;DHT22;34679;51.436;-2.518;2022-12-18T10:48:04;3.10;99.90
48860;DHT22;34679;51.436;-2.518;2022-12-18T10:50:36;3.20;99.90
48860;DHT22;34679;51.436;-2.518;2022-12-18T10:53:04;3.20;99.90
48860;DHT22;34679;51.436;-2.518;2022-12-18T10:55:35;3.20;99.90
48860;DHT22;34679;51.436;-2.518;2022-12-18T10:58:31;3.20;99.90
48860;DHT22;34679;51.436;-2.518;2022-12-18T11:01:17;3.20;99.90
48860;DHT22;34679;51.436;-2.518;2022-12-18T11:06:25;3.30;99.90
48860;DHT22;34679;51.436;-2.518;2022-12-18T11:09:05;3.30;99.90
48860;DHT22;34679;51.436;-2.518;2022-12-18T11:11:32;3.40;99.90
48860;DHT22;34679;51.436;-2.518;2022-12-18T11:14:12;3.40;99.90
48860;DHT22;34679;51.436;-2.518;2022-12-18T11:16:47;3.40;99.90
48860;DHT22;34679;51.436;-2.518;2022-12-18T11:19:30;3.40;99.90
48860;DHT22;34679;51.436;-2.518;2022-12-18T11:21:58;3.40;99.90
48860;DHT22;34679;51.436;-2.518;2022-12-18T11:26:57;3.50;99.90
48860;DHT22;34679;51.436;-2.518;2022-12-18T11:29:37;3.50;99.90
48860;DHT22;34679;51.436;-2.518;2022-12-18T11:32:24;3.50;99.90
48860;DHT22;34679;51.436;-2.518;2022-12-18T11:37:49;3.60;99.90
48860;DHT22;34679;51.436;-2.518;2022-12-18T11:40:36;3.60;99.90
48860;DHT22;34679;51.436;-2.518;2022-12-18T11:43:35;3.60;99.90
48860;DHT22;34679;51.436;-2.518;2022-12-18T11:46:14;3.60;99.90
48860;DHT22;34679;51.436;-2.518;2022-12-18T11:49:02;3.60;99.90
48860;DHT22;34679;51.436;-2.518;2022-12-18T11:51:35;3.60;99.90
48860;DHT22;34679;51.436;-2.518;2022-12-18T11:54:12;3.70;99.90
48860;DHT22;34679;51.436;-2.518;2022-12-18T11:56:53;3.70;99.90
48860;DHT22;34679;51.436;-2.518;2022-12-18T12:11:22;3.80;99.90
48860;DHT22;34679;51.436;-2.518;2022-12-18T12:21:55;4.00;99.90
48860;DHT22;34679;51.436;-2.518;2022-12-18T12:24:27;4.00;99.90
48860;DHT22;34679;51.436;-2.518;2022-12-18T12:30:48;4.20;99.90
48860;DHT22;34679;51.436;-2.518;2022-12-18T12:33:40;4.20;99.90
48860;DHT22;34679;51.436;-2.518;2022-12-18T12:36:26;4.20;99.90
48860;DHT22;34679;51.436;-2.518;2022-12-18T12:38:59;4.30;99.90
48860;DHT22;34679;51.436;-2.518;2022-12-18T12:41:30;4.30;99.90
48860;DHT22;34679;51.436;-2.518;2022-12-18T12:44:35;4.30;99.90
48860;DHT22;34679;51.436;-2.518;2022-12-18T12:47:32;4.40;99.90
48860;DHT22;34679;51.436;-2.518;2022-12-18T12:50:03;4.50;99.90
48860;DHT22;34679;51.436;-2.518;2022-12-18T12:52:39;4.50;99.90
48860;DHT22;34679;51.436;-2.518;2022-12-18T12:55:20;4.50;99.90
48860;DHT22;34679;51.436;-2.518;2022-12-18T13:04:09;4.50;99.90
48860;DHT22;34679;51.436;-2.518;2022-12-18T13:07:10;4.60;99.90
48860;DHT22;34679;51.436;-2.518;2022-12-18T13:10:32;4.70;99.90
48860;DHT22;34679;51.436;-2.518;2022-12-18T13:13:07;4.70;99.90
48860;DHT22;34679;51.436;-2.518;2022-12-18T13:16:08;4.80;99.90
48860;DHT22;34679;51.436;-2.518;2022-12-18T13:18:34;4.80;99.90
48860;DHT22;34679;51.436;-2.518;2022-12-18T13:23:29;4.90;99.90
48860;DHT22;34679;51.436;-2.518;2022-12-18T13:31:13;5.00;99.90
48860;DHT22;34679;51.436;-2.518;2022-12-18T13:33:44;5.10;99.90
48860;DHT22;34679;51.436;-2.518;2022-12-18T13:38:45;5.20;99.90
48860;DHT22;34679;51.436;-2.518;2022-12-18T13:43:49;5.20;99.90
48860;DHT22;34679;51.436;-2.518;2022-12-18T13:48:51;5.40;99.90
48860;DHT22;34679;51.436;-2.518;2022-12-18T13:51:19;5.40;99.90
48860;DHT22;34679;51.436;-2.518;2022-12-18T13:53:55;5.50;99.90
48860;DHT22;34679;51.436;-2.518;2022-12-18T13:56:25;5.60;99.90
48860;DHT22;34679;51.436;-2.518;2022-12-18T14:01:56;5.60;99.90
48860;DHT22;34679;51.436;-2.518;2022-12-18T14:06:54;5.70;99.90
48860;DHT22;34679;51.436;-2.518;2022-12-18T14:09:24;5.80;99.90
48860;DHT22;34679;51.436;-2.518;2022-12-18T14:11:51;5.80;99.90
48860;DHT22;34679;51.436;-2.518;2022-12-18T14:14:18;5.90;99.90
48860;DHT22;34679;51.436;-2.518;2022-12-18T14:16:46;5.90;99.90
48860;DHT22;34679;51.436;-2.518;2022-12-18T14:19:15;6.00;99.90
48860;DHT22;34679;51.436;-2.518;2022-12-18T14:21:49;6.10;99.90
48860;DHT22;34679;51.436;-2.518;2022-12-18T14:24:20;6.30;99.90
48860;DHT22;34679;51.436;-2.518;2022-12-18T14:26:48;6.50;99.90
48860;DHT22;34679;51.436;-2.518;2022-12-18T14:29:19;6.60;99.90
48860;DHT22;34679;51.436;-2.518;2022-12-18T14:31:45;6.70;99.90
48860;DHT22;34679;51.436;-2.518;2022-12-18T14:34:17;6.90;99.90
48860;DHT22;34679;51.436;-2.518;2022-12-18T14:36:52;7.10;99.90
48860;DHT22;34679;51.436;-2.518;2022-12-18T14:39:18;7.20;99.90
48860;DHT22;34679;51.436;-2.518;2022-12-18T14:41:44;7.30;99.90
48860;DHT22;34679;51.436;-2.518;2022-12-18T14:44:12;7.40;99.90
48860;DHT22;34679;51.436;-2.518;2022-12-18T14:46:45;7.50;99.90
48860;DHT22;34679;51.436;-2.518;2022-12-18T14:49:22;7.60;99.90
48860;DHT22;34679;51.436;-2.518;2022-12-18T14:51:52;7.60;99.90
48860;DHT22;34679;51.436;-2.518;2022-12-18T14:54:19;7.70;99.90
48860;DHT22;34679;51.436;-2.518;2022-12-18T14:59:23;7.80;99.90
48860;DHT22;34679;51.436;-2.518;2022-12-18T15:04:31;7.90;99.90
48860;DHT22;34679;51.436;-2.518;2022-12-18T15:09:38;8.00;99.90
48860;DHT22;34679;51.436;-2.518;2022-12-18T15:12:05;8.00;99.90
48860;DHT22;34679;51.436;-2.518;2022-12-18T15:14:41;8.00;99.90
48860;DHT22;34679;51.436;-2.518;2022-12-18T15:17:19;8.00;99.90
48860;DHT22;34679;51.436;-2.518;2022-12-18T15:19:47;8.00;99.90
48860;DHT22;34679;51.436;-2.518;2022-12-18T15:22:30;8.10;99.90
48860;DHT22;34679;51.436;-2.518;2022-12-18T15:24:58;8.10;99.90
48860;DHT22;34679;51.436;-2.518;2022-12-18T15:27:33;8.10;99.90
48860;DHT22;34679;51.436;-2.518;2022-12-18T15:32:36;8.10;99.90
48860;DHT22;34679;51.436;-2.518;2022-12-18T15:35:13;8.10;99.90
48860;DHT22;34679;51.436;-2.518;2022-12-18T15:37:39;8.10;99.90
48860;DHT22;34679;51.436;-2.518;2022-12-18T15:40:06;8.20;99.90
48860;DHT22;34679;51.436;-2.518;2022-12-18T15:42:32;8.10;99.90
48860;DHT22;34679;51.436;-2.518;2022-12-18T15:45:18;8.10;99.90
48860;DHT22;34679;51.436;-2.518;2022-12-18T15:47:44;8.20;99.90
48860;DHT22;34679;51.436;-2.518;2022-12-18T15:50:10;8.30;99.90
48860;DHT22;34679;51.436;-2.518;2022-12-18T15:52:46;8.20;99.90
48860;DHT22;34679;51.436;-2.518;2022-12-18T15:55:14;8.20;99.90
48860;DHT22;34679;51.436;-2.518;2022-12-18T15:57:59;8.20;99.90
48860;DHT22;34679;51.436;-2.518;2022-12-18T16:00:26;8.30;99.90
48860;DHT22;34679;51.436;-2.518;2022-12-18T16:02:52;8.30;99.90
48860;DHT22;34679;51.436;-2.518;2022-12-18T16:05:20;8.30;99.90
48860;DHT22;34679;51.436;-2.518;2022-12-18T16:07:47;8.30;99.90
48860;DHT22;34679;51.436;-2.518;2022-12-18T16:10:13;8.30;99.90
48860;DHT22;34679;51.436;-2.518;2022-12-18T16:12:38;8.30;99.90
48860;DHT22;34679;51.436;-2.518;2022-12-18T16:15:05;8.30;99.90
48860;DHT22;34679;51.436;-2.518;2022-12-18T16:17:31;8.30;99.90
48860;DHT22;34679;51.436;-2.518;2022-12-18T16:19:57;8.30;99.90
48860;DHT22;34679;51.436;-2.518;2022-12-18T16:22:27;8.30;99.90
48860;DHT22;34679;51.436;-2.518;2022-12-18T16:24:54;8.30;99.90
48860;DHT22;34679;51.436;-2.518;2022-12-18T16:27:22;8.40;99.90
48860;DHT22;34679;51.436;-2.518;2022-12-18T16:29:49;8.40;99.90
48860;DHT22;34679;51.436;-2.518;2022-12-18T16:32:17;8.40;99.90
48860;DHT22;34679;51.436;-2.518;2022-12-18T16:34:44;8.50;99.90
48860;DHT22;34679;51.436;-2.518;2022-12-18T16:37:12;8.50;99.90
48860;DHT22;34679;51.436;-2.518;2022-12-18T16:39:39;8.50;99.90
48860;DHT22;34679;51.436;-2.518;2022-12-18T16:42:13;8.50;99.90
48860;DHT22;34679;51.436;-2.518;2022-12-18T16:44:42;8.60;99.90
48860;DHT22;34679;51.436;-2.518;2022-12-18T16:47:08;8.60;99.90
48860;DHT22;34679;51.436;-2.518;2022-12-18T16:49:34;8.60;99.90
48860;DHT22;34679;51.436;-2.518;2022-12-18T16:52:00;8.70;99.90
48860;DHT22;34679;51.436;-2.518;2022-12-18T16:54:25;8.70;99.90
48860;DHT22;34679;51.436;-2.518;2022-12-18T16:56:54;8.70;99.90
48860;DHT22;34679;51.436;-2.518;2022-12-18T16:59:20;8.80;99.90
48860;DHT22;34679;51.436;-2.518;2022-12-18T17:01:46;8.80;99.90
48860;DHT22;34679;51.436;-2.518;2022-12-18T17:04:12;8.90;99.90
48860;DHT22;34679;51.436;-2.518;2022-12-18T17:06:43;8.80;99.90
48860;DHT22;34679;51.436;-2.518;2022-12-18T17:09:14;8.80;99.90
48860;DHT22;34679;51.436;-2.518;2022-12-18T17:11:41;8.80;99.90
48860;DHT22;34679;51.436;-2.518;2022-12-18T17:14:13;8.80;99.90
48860;DHT22;34679;51.436;-2.518;2022-12-18T17:16:39;8.90;99.90
48860;DHT22;34679;51.436;-2.518;2022-12-18T17:19:05;8.90;99.90
48860;DHT22;34679;51.436;-2.518;2022-12-18T17:21:31;8.90;99.90
48860;DHT22;34679;51.436;-2.518;2022-12-18T17:23:59;9.00;99.90
48860;DHT22;34679;51.436;-2.518;2022-12-18T17:26:26;9.00;99.90
48860;DHT22;34679;51.436;-2.518;2022-12-18T17:28:52;9.00;99.90
48860;DHT22;34679;51.436;-2.518;2022-12-18T17:31:20;8.90;99.90
48860;DHT22;34679;51.436;-2.518;2022-12-18T17:33:46;9.00;99.90
48860;DHT22;34679;51.436;-2.518;2022-12-18T17:36:12;9.10;99.90
48860;DHT22;34679;51.436;-2.518;2022-12-18T17:38:38;9.10;99.90